Time;durP1;ratioP1;P1;durP2;ratioP2;P2;SDS_P1;SDS_P2;PMS_P1;PMS_P2;Temp;Humidity;BMP_temperature;BMP_pressure;BME280_temperature;BME280_humidity;BME280_pressure;Samples;Min_cycle;Max_cycle;Signal;HPM_P1;HPM_P2
2021/12/05 00:16:51;;;;;;;18.92;3.50;;;;;;;5.12;100.00;99133.94;5020373;28;20080;-68
2021/12/05 00:20:36;;;;;;;21.30;3.20;;;;;;;5.21;100.00;99153.75;5023067;28;20051;-70
2021/12/05 00:22:58;;;;;;;29.85;4.10;;;;;;;5.13;100.00;99135.59;5012118;28;20041;-68
2021/12/05 00:25:28;;;;;;;40.78;3.25;;;;;;;5.21;100.00;99151.09;5028814;28;20083;-71
2021/12/05 00:49:13;;;;;;;25.30;4.47;;;;;;;5.48;100.00;99153.72;5025225;28;20278;-71
2021/12/05 01:03:16;;;;;;;25.13;5.65;;;;;;;5.32;100.00;99131.50;5023948;28;20155;-73
2021/12/05 01:13:29;;;;;;;59.72;22.40;;;;;;;5.38;100.00;99123.59;5024785;28;20029;-72
2021/12/05 01:15:57;;;;;;;35.22;9.80;;;;;;;5.38;100.00;99142.19;5024406;28;20114;-72
2021/12/05 01:18:23;;;;;;;28.88;7.00;;;;;;;5.24;100.00;99137.28;5038261;28;20033;-72
2021/12/05 01:20:56;;;;;;;25.42;6.25;;;;;;;5.06;100.00;99137.63;5028133;28;20551;-73
2021/12/05 01:23:46;;;;;;;13.98;4.80;;;;;;;4.89;100.00;99139.59;5038559;28;20099;-72
2021/12/05 01:26:23;;;;;;;10.88;3.45;;;;;;;4.65;100.00;99144.34;5021880;28;20154;-72
2021/12/05 01:43:00;;;;;;;20.30;6.88;;;;;;;4.35;100.00;99147.44;5023314;28;20252;-72
2021/12/05 01:53:01;;;;;;;85.43;38.42;;;;;;;4.15;100.00;99145.28;5022280;28;20554;-72
2021/12/05 02:41:21;;;;;;;30.17;9.27;;;;;;;4.01;100.00;99159.97;5021231;28;20048;-72
2021/12/05 02:43:55;;;;;;;;;;;;;;;4.05;100.00;99156.56;5024839;28;20040;-72
2021/12/05 02:46:22;;;;;;;24.42;9.43;;;;;;;4.05;100.00;99150.47;5026763;28;20051;-72
2021/12/05 02:48:48;;;;;;;27.98;11.65;;;;;;;4.00;100.00;99153.06;5020768;28;20047;-72
2021/12/05 02:51:28;;;;;;;23.58;9.60;;;;;;;4.14;100.00;99159.59;5023225;28;20029;-72
2021/12/05 02:54:06;;;;;;;25.65;10.05;;;;;;;4.07;100.00;99162.47;5020149;28;20030;-72
2021/12/05 02:56:36;;;;;;;28.58;13.30;;;;;;;3.99;100.00;99160.22;5022572;28;20032;-72
2021/12/05 02:59:18;;;;;;;21.20;11.07;;;;;;;4.04;100.00;99165.56;5010815;28;20102;-72
2021/12/05 03:01:56;;;;;;;25.35;12.63;;;;;;;4.08;100.00;99169.38;5020983;28;20090;-72
2021/12/05 03:04:24;;;;;;;24.90;13.07;;;;;;;4.06;100.00;99163.47;5026546;28;20040;-72
2021/12/05 03:06:54;;;;;;;33.63;13.80;;;;;;;3.98;100.00;99166.53;5036598;28;20126;-73
2021/12/05 03:09:21;;;;;;;32.15;13.45;;;;;;;4.03;100.00;99168.47;5021645;28;20691;-73
2021/12/05 03:11:55;;;;;;;34.75;14.23;;;;;;;4.11;100.00;99176.84;5009921;28;20176;-73
2021/12/05 03:14:22;;;;;;;25.23;12.07;;;;;;;3.89;100.00;99136.97;5009583;28;20135;-72
2021/12/05 03:16:48;;;;;;;47.55;16.98;;;;;;;4.12;100.00;99167.81;5000066;28;20028;-73
2021/12/05 03:19:17;;;;;;;31.80;12.93;;;;;;;4.02;100.00;99167.69;5025726;28;20056;-72
2021/12/05 03:21:44;;;;;;;35.15;13.63;;;;;;;3.95;100.00;99161.72;5021887;28;20026;-72
2021/12/05 03:24:14;;;;;;;27.63;11.18;;;;;;;4.02;100.00;99157.06;5021192;28;20018;-72
2021/12/05 03:26:44;;;;;;;33.88;17.45;;;;;;;3.97;100.00;99164.13;5022853;28;20326;-72
2021/12/05 03:29:14;;;;;;;26.08;11.65;;;;;;;3.83;100.00;99153.06;5022512;28;20029;-72
2021/12/05 03:31:45;;;;;;;32.47;14.60;;;;;;;3.95;100.00;99156.41;5036149;28;20544;-72
2021/12/05 03:34:15;;;;;;;31.63;16.52;;;;;;;3.98;100.00;99160.44;5021248;28;20114;-73
2021/12/05 03:36:43;;;;;;;40.63;20.77;;;;;;;3.95;100.00;99153.78;5037348;28;20033;-73
2021/12/05 03:39:15;;;;;;;65.88;38.30;;;;;;;4.00;100.00;99159.16;5039656;28;20675;-73
2021/12/05 03:41:41;;;;;;;54.88;28.63;;;;;;;4.02;100.00;99151.75;5025861;28;20047;-73
2021/12/05 03:44:08;;;;;;;71.03;38.00;;;;;;;4.05;100.00;99156.56;5028791;28;20041;-69
2021/12/05 03:46:37;;;;;;;52.92;30.10;;;;;;;4.12;100.00;99167.00;5006931;28;20303;-69
2021/12/05 03:49:06;;;;;;;52.20;27.50;;;;;;;3.99;100.00;99157.56;5025564;28;20092;-69
2021/12/05 03:51:37;;;;;;;71.03;33.63;;;;;;;3.93;100.00;99163.84;5037911;28;20412;-69
2021/12/05 03:54:05;;;;;;;61.35;28.40;;;;;;;3.88;100.00;99166.41;5024887;28;20060;-69
2021/12/05 03:56:33;;;;;;;52.75;27.55;;;;;;;3.94;100.00;99179.50;5012921;28;20030;-68
2021/12/05 03:59:05;;;;;;;29.13;14.43;;;;;;;3.89;100.00;99199.84;5023467;28;20041;-68
2021/12/05 04:01:30;;;;;;;26.52;11.00;;;;;;;3.83;100.00;99195.50;5023281;28;20048;-68
2021/12/05 04:03:56;;;;;;;28.10;11.13;;;;;;;3.80;100.00;99198.63;5039466;28;20055;-69
2021/12/05 04:06:23;;;;;;;24.33;10.77;;;;;;;3.67;100.00;99186.50;5024049;28;20025;-70
2021/12/05 04:08:50;;;;;;;31.45;14.75;;;;;;;3.55;100.00;99191.88;5013048;28;20044;-70
2021/12/05 04:11:28;;;;;;;31.77;12.45;;;;;;;3.46;100.00;99195.94;5023706;28;20068;-69
2021/12/05 04:13:54;;;;;;;38.03;23.70;;;;;;;3.41;100.00;99200.34;5038112;28;20028;-69
2021/12/05 04:16:22;;;;;;;37.22;19.02;;;;;;;3.27;100.00;99199.84;5000593;28;20128;-69
2021/12/05 04:18:50;;;;;;;33.60;22.00;;;;;;;3.28;100.00;99194.31;5022548;28;20040;-69
2021/12/05 04:21:17;;;;;;;34.40;16.48;;;;;;;3.15;100.00;99207.03;5024716;28;20028;-69
2021/12/05 04:23:46;;;;;;;29.95;13.48;;;;;;;3.26;100.00;99200.91;5022993;28;20503;-69
2021/12/05 04:26:14;;;;;;;27.58;14.75;;;;;;;3.17;100.00;99197.00;5022852;28;20032;-69
2021/12/05 04:28:46;;;;;;;32.17;16.10;;;;;;;3.01;100.00;99202.03;5024461;28;20484;-69
2021/12/05 04:31:11;;;;;;;35.38;15.02;;;;;;;3.06;100.00;99218.00;5037835;28;20200;-69
2021/12/05 04:33:39;;;;;;;28.08;15.10;;;;;;;3.01;100.00;99209.97;5023014;28;21957;-69
2021/12/05 04:36:10;;;;;;;39.13;22.67;;;;;;;2.97;100.00;99216.78;5023178;28;20037;-70
2021/12/05 04:38:36;;;;;;;42.33;26.35;;;;;;;2.95;100.00;99200.31;5023910;28;20047;-69
2021/12/05 04:41:02;;;;;;;85.07;49.42;;;;;;;3.02;100.00;99208.94;5024340;28;20257;-69
2021/12/05 04:43:35;;;;;;;85.25;47.13;;;;;;;3.10;100.00;99207.75;5024141;28;20086;-71
2021/12/05 04:46:01;;;;;;;97.15;47.70;;;;;;;3.24;100.00;99206.41;5026754;28;20222;-68
2021/12/05 04:48:27;;;;;;;89.60;46.72;;;;;;;3.33;100.00;99210.28;5024658;28;20776;-68
2021/12/05 04:50:52;;;;;;;92.93;49.45;;;;;;;3.42;100.00;99212.56;5021627;28;20044;-68
2021/12/05 04:53:18;;;;;;;83.90;45.20;;;;;;;3.43;100.00;99214.19;5025672;28;20036;-69
2021/12/05 04:55:45;;;;;;;88.40;45.22;;;;;;;3.41;100.00;99214.41;5038642;28;20131;-70
2021/12/05 04:58:13;;;;;;;111.10;55.03;;;;;;;3.37;100.00;99206.13;5023055;28;20136;-69
2021/12/05 05:00:45;;;;;;;116.68;59.15;;;;;;;3.44;100.00;99202.53;5021838;28;20549;-69
2021/12/05 05:03:12;;;;;;;89.82;42.22;;;;;;;3.47;100.00;99216.13;5021744;28;20033;-70
2021/12/05 05:05:44;;;;;;;90.93;32.63;;;;;;;3.45;100.00;99220.06;5011828;28;20126;-69
2021/12/05 05:08:12;;;;;;;57.88;27.13;;;;;;;3.41;100.00;99225.00;5024076;28;20033;-69
2021/12/05 05:10:38;;;;;;;35.95;18.13;;;;;;;3.42;100.00;99231.94;5023220;28;20075;-69
2021/12/05 05:13:06;;;;;;;39.65;17.85;;;;;;;3.37;100.00;99231.84;5024951;28;20025;-69
2021/12/05 05:15:34;;;;;;;41.50;21.30;;;;;;;3.14;100.00;99231.94;5038995;28;20032;-69
2021/12/05 05:18:01;;;;;;;48.67;25.45;;;;;;;3.06;100.00;99236.56;5036847;28;20040;-69
2021/12/05 05:20:45;;;;;;;45.22;22.08;;;;;;;3.07;100.00;99237.38;5023783;28;20167;-68
2021/12/05 05:29:25;;;;;;;47.65;29.13;;;;;;;2.89;100.00;99254.22;4996260;28;20512;-69
2021/12/05 05:45:28;;;;;;;63.38;28.75;;;;;;;3.21;100.00;99282.97;5023016;28;20143;-69
2021/12/05 05:50:40;;;;;;;64.25;38.42;;;;;;;3.41;100.00;99290.50;5022577;28;20061;-69
2021/12/05 05:53:08;;;;;;;71.53;33.55;;;;;;;3.48;100.00;99288.50;5021606;28;20116;-69
2021/12/05 05:55:37;;;;;;;53.85;29.67;;;;;;;3.44;100.00;99298.78;5022502;28;20036;-69
2021/12/05 05:58:16;;;;;;;69.72;35.30;;;;;;;3.39;100.00;99301.34;5022976;28;20481;-69
2021/12/05 06:01:07;;;;;;;59.10;23.75;;;;;;;3.50;100.00;99308.47;5021625;28;20585;-68
2021/12/05 06:03:32;;;;;;;48.38;21.52;;;;;;;3.54;100.00;99306.94;5021574;28;20036;-69
2021/12/05 06:06:05;;;;;;;45.95;18.13;;;;;;;3.42;100.00;99303.53;5020959;28;20036;-68
2021/12/05 06:08:37;;;;;;;47.05;21.85;;;;;;;3.42;100.00;99315.97;5027212;28;20085;-69
2021/12/05 06:11:07;;;;;;;68.50;29.85;;;;;;;3.38;100.00;99308.47;5026891;28;20224;-69
2021/12/05 06:13:36;;;;;;;75.18;25.52;;;;;;;3.34;100.00;99319.81;5022114;28;20074;-69
2021/12/05 06:16:05;;;;;;;85.25;31.23;;;;;;;3.21;100.00;99309.47;5026211;28;20037;-68
2021/12/05 06:18:34;;;;;;;83.40;33.95;;;;;;;3.25;100.00;99318.53;5009354;28;20154;-69
2021/12/05 06:21:02;;;;;;;96.15;46.63;;;;;;;3.26;100.00;99322.81;5009963;28;20543;-68
2021/12/05 06:23:27;;;;;;;92.88;47.50;;;;;;;3.25;100.00;99324.66;5022221;28;20160;-69
2021/12/05 06:25:56;;;;;;;113.90;59.22;;;;;;;3.23;100.00;99333.88;5021682;28;20419;-69
2021/12/05 06:28:29;;;;;;;88.30;55.45;;;;;;;3.27;100.00;99335.03;5020968;28;20037;-68
2021/12/05 06:47:30;;;;;;;130.57;55.95;;;;;;;3.55;100.00;99343.00;5021388;28;20045;-69
2021/12/05 06:49:59;;;;;;;161.60;55.17;;;;;;;3.58;100.00;99352.34;5035506;28;20138;-69
2021/12/05 06:52:27;;;;;;;75.28;35.30;;;;;;;3.53;100.00;99350.41;5022535;28;20059;-69
2021/12/05 06:54:53;;;;;;;39.85;20.95;;;;;;;3.50;100.00;99350.06;5019999;28;20784;-70
2021/12/05 06:57:27;;;;;;;33.83;17.27;;;;;;;3.46;100.00;99360.34;5021442;28;20897;-69
2021/12/05 06:59:53;;;;;;;27.85;14.15;;;;;;;3.34;100.00;99351.63;5020275;28;20044;-70
2021/12/05 07:02:22;;;;;;;22.70;12.02;;;;;;;3.35;100.00;99364.63;5024718;28;20365;-69
2021/12/05 07:07:33;;;;;;;20.03;12.13;;;;;;;3.41;100.00;99367.38;5019904;28;20037;-70
2021/12/05 07:10:00;;;;;;;21.02;11.68;;;;;;;3.35;100.00;99375.25;5021676;28;20703;-70
2021/12/05 07:15:33;;;;;;;26.67;13.82;;;;;;;3.48;100.00;99399.88;5015677;28;20136;-69
2021/12/05 07:23:33;;;;;;;31.92;17.85;;;;;;;3.46;100.00;99402.75;5024914;28;20048;-68
2021/12/05 07:42:40;;;;;;;36.67;19.20;;;;;;;3.58;100.00;99414.16;5024735;28;20040;-71
2021/12/05 07:45:10;;;;;;;39.08;19.90;;;;;;;3.54;100.00;99413.00;5023683;28;20782;-68
2021/12/05 07:47:39;;;;;;;34.03;19.88;;;;;;;3.56;100.00;99428.69;5023917;28;20025;-68
2021/12/05 07:50:09;;;;;;;31.02;17.58;;;;;;;3.55;100.00;99432.38;5024361;28;20060;-67
2021/12/05 07:52:38;;;;;;;30.15;16.65;;;;;;;3.54;100.00;99438.72;5039378;28;20098;-69
2021/12/05 07:55:19;;;;;;;34.60;18.08;;;;;;;3.50;100.00;99435.75;5023887;28;20025;-69
2021/12/05 07:58:05;;;;;;;34.00;19.15;;;;;;;3.47;100.00;99438.84;5025804;28;20037;-68
2021/12/05 08:00:55;;;;;;;32.13;18.40;;;;;;;3.52;100.00;99446.09;5023988;28;20037;-68
2021/12/05 08:14:26;;;;;;;33.47;16.88;;;;;;;3.27;100.00;99456.97;5024053;28;20120;-70
2021/12/05 08:16:53;;;;;;;29.83;15.73;;;;;;;3.23;100.00;99477.00;5024129;28;20029;-69
2021/12/05 08:19:21;;;;;;;33.25;15.65;;;;;;;3.27;100.00;99468.38;5022782;28;20033;-69
2021/12/05 08:21:54;;;;;;;29.63;15.30;;;;;;;3.34;100.00;99473.56;5025016;28;20039;-69
2021/12/05 08:24:19;;;;;;;35.90;16.23;;;;;;;3.35;100.00;99483.94;5038375;28;20436;-69
2021/12/05 08:26:48;;;;;;;29.80;15.43;;;;;;;3.33;100.00;99482.53;4997514;28;20025;-69
2021/12/05 08:29:17;;;;;;;28.50;15.55;;;;;;;3.33;100.00;99485.19;5025112;28;20037;-69
2021/12/05 09:21:07;;;;;;;29.15;14.68;;;;;;;4.77;100.00;99556.84;5021958;28;20189;-68
2021/12/05 10:15:28;;;;;;;28.58;18.13;;;;;;;6.18;100.00;99632.00;5023802;28;20370;-69
2021/12/05 10:26:42;;;;;;;26.80;16.90;;;;;;;6.28;100.00;99638.56;5037733;28;20098;-69
2021/12/05 10:37:27;;;;;;;26.05;14.98;;;;;;;6.39;100.00;99643.75;5039206;28;20051;-69
2021/12/05 10:40:05;;;;;;;24.08;14.77;;;;;;;6.28;100.00;99655.34;5024207;28;20435;-68
2021/12/05 10:42:41;;;;;;;27.95;15.80;;;;;;;6.17;100.00;99637.59;5025530;28;20284;-68
2021/12/05 10:45:26;;;;;;;22.13;14.13;;;;;;;6.30;100.00;99655.91;5025214;28;20603;-68
2021/12/05 10:47:54;;;;;;;25.00;15.18;;;;;;;6.35;100.00;99653.31;5025813;28;20060;-69
2021/12/05 10:50:38;;;;;;;24.17;15.05;;;;;;;6.11;100.00;99668.69;5040166;28;20457;-69
2021/12/05 10:53:28;;;;;;;25.27;15.55;;;;;;;6.18;100.00;99669.31;5008698;28;20485;-69
2021/12/05 10:56:10;;;;;;;21.45;14.98;;;;;;;6.24;100.00;99680.84;5024539;28;20393;-69
2021/12/05 10:58:45;;;;;;;23.30;15.05;;;;;;;6.15;100.00;99680.44;5024679;28;20171;-69
2021/12/05 11:01:12;;;;;;;23.85;15.35;;;;;;;6.27;100.00;99685.69;5025187;28;20037;-69
2021/12/05 11:03:43;;;;;;;28.10;17.02;;;;;;;6.37;100.00;99679.69;5025156;28;20059;-69
2021/12/05 11:06:33;;;;;;;25.52;17.30;;;;;;;6.40;100.00;99680.00;5030323;28;20033;-70
2021/12/05 11:09:14;;;;;;;27.38;16.77;;;;;;;6.41;100.00;99686.13;5029751;28;22418;-68
2021/12/05 11:11:45;;;;;;;27.08;17.17;;;;;;;6.46;100.00;99687.03;5011909;28;20033;-69
2021/12/05 11:14:18;;;;;;;25.85;17.63;;;;;;;6.52;100.00;99695.09;5014883;28;20102;-68
2021/12/05 11:16:53;;;;;;;26.90;18.15;;;;;;;6.51;100.00;99704.13;5014948;28;20029;-69
2021/12/05 11:19:44;;;;;;;23.58;17.73;;;;;;;6.56;100.00;99706.84;5011216;28;20087;-69
2021/12/05 11:22:21;;;;;;;24.00;17.42;;;;;;;6.63;100.00;99713.63;5012668;28;20045;-68
2021/12/05 11:24:52;;;;;;;24.30;16.15;;;;;;;6.67;100.00;99703.25;5000232;28;20040;-69
2021/12/05 11:27:19;;;;;;;22.90;16.52;;;;;;;6.69;100.00;99715.31;5017848;28;20052;-70
2021/12/05 11:30:00;;;;;;;22.95;16.20;;;;;;;6.57;100.00;99724.47;5011596;28;20759;-70
2021/12/05 11:32:58;;;;;;;24.98;15.45;;;;;;;6.44;100.00;99729.09;5011333;28;20514;-70
2021/12/05 11:35:34;;;;;;;20.90;16.20;;;;;;;6.31;100.00;99728.63;5011563;28;20026;-70
2021/12/05 11:38:07;;;;;;;23.65;16.75;;;;;;;6.37;100.00;99728.47;5011950;28;20615;-69
2021/12/05 11:40:48;;;;;;;24.25;17.27;;;;;;;6.33;100.00;99737.97;5011382;28;20048;-70
2021/12/05 11:43:21;;;;;;;23.23;16.98;;;;;;;6.29;100.00;99734.19;5010859;28;21932;-69
2021/12/05 11:46:09;;;;;;;25.48;17.70;;;;;;;6.23;100.00;99742.34;5009795;28;20036;-69
2021/12/05 11:48:48;;;;;;;22.77;16.40;;;;;;;6.14;100.00;99749.94;5009536;28;20045;-69
2021/12/05 11:51:27;;;;;;;25.98;18.25;;;;;;;6.25;100.00;99734.91;5010554;28;20144;-69
2021/12/05 11:53:55;;;;;;;22.67;17.13;;;;;;;6.24;100.00;99747.44;5011085;28;20044;-69
2021/12/05 11:56:29;;;;;;;24.60;18.60;;;;;;;6.28;100.00;99748.56;5013116;28;20052;-70
2021/12/05 11:59:18;;;;;;;22.70;17.38;;;;;;;6.21;100.00;99753.25;5008252;28;20051;-70
2021/12/05 12:02:07;;;;;;;26.45;18.27;;;;;;;6.08;100.00;99742.91;5009653;28;20059;-70
2021/12/05 12:04:48;;;;;;;24.08;17.30;;;;;;;6.09;100.00;99760.50;5010474;28;20472;-70
2021/12/05 12:07:26;;;;;;;25.20;18.75;;;;;;;6.01;100.00;99763.56;5011199;28;20268;-69
2021/12/05 12:10:17;;;;;;;22.77;17.02;;;;;;;5.98;100.00;99766.72;5010171;28;20041;-70
2021/12/05 12:12:47;;;;;;;23.20;17.08;;;;;;;6.04;100.00;99766.56;5009468;28;20033;-68
2021/12/05 12:15:19;;;;;;;23.63;17.08;;;;;;;6.01;100.00;99766.22;5007389;28;20122;-70
2021/12/05 12:17:48;;;;;;;24.65;16.48;;;;;;;6.08;100.00;99775.69;5007385;28;20409;-68
2021/12/05 12:20:19;;;;;;;24.38;17.25;;;;;;;5.99;100.00;99771.00;5007883;28;20397;-68
2021/12/05 12:22:45;;;;;;;23.35;17.27;;;;;;;5.97;100.00;99773.09;5012034;28;20037;-69
2021/12/05 12:25:17;;;;;;;22.35;16.50;;;;;;;5.96;100.00;99766.97;5008507;28;21893;-69
2021/12/05 12:27:44;;;;;;;23.23;16.98;;;;;;;6.03;100.00;99777.47;5001768;28;20052;-69
2021/12/05 12:30:10;;;;;;;20.45;16.10;;;;;;;6.02;100.00;99775.81;5008943;28;20041;-68
2021/12/05 12:32:42;;;;;;;23.38;17.42;;;;;;;6.16;100.00;99788.59;5007537;28;20036;-70
2021/12/05 12:35:23;;;;;;;21.13;16.58;;;;;;;6.14;100.00;99792.56;4996451;28;20033;-68
2021/12/05 12:38:08;;;;;;;23.13;16.23;;;;;;;6.21;100.00;99793.22;5008279;28;20037;-71
2021/12/05 12:40:44;;;;;;;23.50;16.77;;;;;;;6.17;100.00;99806.19;5008852;28;20392;-71
2021/12/05 12:43:39;;;;;;;24.02;15.52;;;;;;;6.16;100.00;99809.09;5017689;28;20029;-69
2021/12/05 12:46:31;;;;;;;22.98;16.05;;;;;;;5.96;100.00;99819.41;5009092;28;20149;-70
2021/12/05 12:49:16;;;;;;;20.52;15.57;;;;;;;5.80;100.00;99812.97;5008006;28;20040;-69
2021/12/05 12:51:47;;;;;;;22.45;15.85;;;;;;;5.83;100.00;99820.47;5015512;28;20151;-69
2021/12/05 12:54:25;;;;;;;19.75;14.38;;;;;;;5.67;100.00;99832.69;5008509;28;20377;-69
2021/12/05 12:57:18;;;;;;;20.08;14.35;;;;;;;5.68;100.00;99828.97;5006462;28;20049;-70
2021/12/05 12:59:50;;;;;;;18.48;13.55;;;;;;;5.66;100.00;99825.75;5009340;28;20545;-73
2021/12/05 13:10:36;;;;;;;24.38;16.60;;;;;;;5.48;100.00;99834.72;5015026;28;20124;-77
2021/12/05 13:13:14;;;;;;;26.30;16.23;;;;;;;5.44;100.00;99843.41;5011232;28;20041;-74
2021/12/05 13:15:57;;;;;;;24.95;16.75;;;;;;;5.44;100.00;99844.22;5010559;28;20124;-74
2021/12/05 13:18:30;;;;;;;25.90;18.58;;;;;;;5.35;100.00;99843.78;5016550;28;20038;-74
2021/12/05 13:20:59;;;;;;;25.77;18.00;;;;;;;5.43;100.00;99852.44;5010001;28;20562;-74
2021/12/05 13:23:43;;;;;;;27.02;18.20;;;;;;;5.35;100.00;99846.44;5010889;28;20344;-75
2021/12/05 13:26:23;;;;;;;27.10;19.33;;;;;;;5.28;100.00;99850.25;5001254;28;20129;-72
2021/12/05 13:29:17;;;;;;;33.53;21.40;;;;;;;5.29;100.00;99858.03;5012908;28;20036;-73
2021/12/05 13:32:06;;;;;;;32.30;20.98;;;;;;;5.25;100.00;99864.84;5012300;28;20045;-73
2021/12/05 13:34:46;;;;;;;30.35;20.20;;;;;;;5.30;100.00;99875.59;5010547;28;20032;-73
2021/12/05 13:37:15;;;;;;;25.63;18.33;;;;;;;5.21;100.00;99870.84;5006361;28;20113;-73
2021/12/05 13:39:49;;;;;;;28.83;19.17;;;;;;;5.13;100.00;99885.34;5016156;28;20405;-73
2021/12/05 13:42:46;;;;;;;27.85;19.33;;;;;;;5.11;100.00;99889.25;5007906;28;20033;-73
2021/12/05 13:45:27;;;;;;;29.63;20.35;;;;;;;5.10;100.00;99896.41;5004915;28;20041;-74
2021/12/05 13:47:52;;;;;;;29.48;21.38;;;;;;;5.03;100.00;99898.38;5003639;28;20029;-74
2021/12/05 13:50:22;;;;;;;30.17;21.63;;;;;;;5.03;100.00;99911.66;5006370;28;20043;-74
2021/12/05 13:53:01;;;;;;;35.13;22.65;;;;;;;5.10;100.00;99917.69;5003037;28;20046;-73
2021/12/05 13:55:42;;;;;;;36.60;23.98;;;;;;;5.07;100.00;99928.78;5021624;28;20041;-74
2021/12/05 13:58:41;;;;;;;31.80;21.63;;;;;;;5.00;100.00;99936.88;5003632;28;20058;-73
2021/12/05 14:01:29;;;;;;;30.77;20.75;;;;;;;4.96;100.00;99953.50;5008621;28;20088;-74
2021/12/05 14:04:03;;;;;;;33.25;21.08;;;;;;;4.96;100.00;99950.84;5004949;28;20029;-74
2021/12/05 14:06:38;;;;;;;35.15;22.30;;;;;;;4.94;100.00;99959.06;5005405;28;20312;-73
2021/12/05 14:09:15;;;;;;;34.33;21.88;;;;;;;4.93;100.00;99959.28;5006941;28;22670;-72
2021/12/05 14:11:46;;;;;;;35.25;21.85;;;;;;;4.90;100.00;99965.88;5009351;28;20044;-73
2021/12/05 14:14:15;;;;;;;34.05;21.48;;;;;;;4.86;100.00;99954.06;5006882;28;20097;-72
2021/12/05 14:16:42;;;;;;;32.97;21.92;;;;;;;4.87;100.00;99973.50;5008090;28;20034;-72
2021/12/05 14:19:13;;;;;;;36.15;23.80;;;;;;;4.85;100.00;99970.25;5014254;28;20084;-72
2021/12/05 14:21:41;;;;;;;36.42;23.33;;;;;;;4.86;100.00;99975.34;5009098;28;20029;-73
2021/12/05 14:24:07;;;;;;;38.15;24.25;;;;;;;4.93;100.00;99985.88;5010842;28;20056;-73
2021/12/05 14:26:36;;;;;;;36.15;23.85;;;;;;;4.90;100.00;99981.84;5010371;28;20085;-73
2021/12/05 14:29:03;;;;;;;35.75;23.27;;;;;;;4.90;100.00;99997.78;5010012;28;20497;-73
2021/12/05 14:31:35;;;;;;;35.58;23.70;;;;;;;4.92;100.00;100000.22;5010339;28;20125;-73
2021/12/05 14:34:01;;;;;;;42.70;26.70;;;;;;;4.97;100.00;99998.50;5011912;28;20498;-72
2021/12/05 14:36:33;;;;;;;39.95;26.13;;;;;;;4.98;100.00;100002.75;5009852;28;20037;-73
2021/12/05 14:39:12;;;;;;;46.20;27.15;;;;;;;4.99;100.00;100012.34;5002529;28;20170;-74
2021/12/05 14:41:38;;;;;;;42.47;26.15;;;;;;;5.02;100.00;100017.22;4998600;28;20080;-72
2021/12/05 14:44:05;;;;;;;39.42;25.65;;;;;;;4.97;100.00;100025.06;5011351;28;20033;-73
2021/12/05 14:46:30;;;;;;;41.13;23.73;;;;;;;4.89;100.00;100029.91;5014105;28;20115;-73
2021/12/05 14:48:58;;;;;;;37.42;23.00;;;;;;;4.83;100.00;100044.09;5013578;28;20068;-74
2021/12/05 14:51:37;;;;;;;34.03;21.75;;;;;;;4.88;100.00;100052.19;5012953;28;20251;-74
2021/12/05 14:54:08;;;;;;;33.10;22.02;;;;;;;4.61;100.00;100026.00;5004261;28;20033;-73
2021/12/05 14:56:35;;;;;;;28.98;19.00;;;;;;;4.75;100.00;100058.50;5017999;28;20088;-74
2021/12/05 14:59:05;;;;;;;27.80;18.63;;;;;;;4.68;100.00;100068.41;5015257;28;20237;-72
2021/12/05 15:01:31;;;;;;;28.77;19.23;;;;;;;4.63;100.00;100071.75;5007597;28;20552;-74
2021/12/05 15:03:56;;;;;;;31.98;19.45;;;;;;;4.58;100.00;100071.63;5015707;28;20036;-71
2021/12/05 15:06:33;;;;;;;31.00;18.67;;;;;;;4.53;100.00;100066.16;5017156;28;20868;-75
2021/12/05 15:09:03;;;;;;;33.15;20.30;;;;;;;4.48;100.00;100076.66;5006293;28;20112;-73
2021/12/05 15:11:28;;;;;;;31.02;19.90;;;;;;;4.50;100.00;100094.00;5010401;28;20037;-73
2021/12/05 15:14:07;;;;;;;35.45;21.10;;;;;;;4.48;100.00;100095.25;5011561;28;20123;-73
2021/12/05 15:16:33;;;;;;;37.63;21.90;;;;;;;4.45;100.00;100093.03;5015026;28;20037;-75
2021/12/05 15:18:59;;;;;;;33.42;20.88;;;;;;;4.38;100.00;100094.94;5009397;28;20060;-68
2021/12/05 15:21:27;;;;;;;34.13;21.15;;;;;;;4.49;100.00;100102.19;5006969;28;20448;-68
2021/12/05 15:23:53;;;;;;;35.70;20.75;;;;;;;4.50;100.00;100099.31;5008038;28;20111;-69
2021/12/05 15:26:18;;;;;;;35.28;20.95;;;;;;;4.53;100.00;100102.53;5022929;28;21049;-69
2021/12/05 15:28:47;;;;;;;34.53;19.67;;;;;;;4.44;100.00;100112.66;5018563;28;20209;-68
2021/12/05 15:31:13;;;;;;;31.65;19.75;;;;;;;4.36;100.00;100111.09;5000389;28;20757;-68
2021/12/05 15:33:39;;;;;;;32.83;18.52;;;;;;;4.41;100.00;100129.06;5012572;28;20138;-68
2021/12/05 15:36:07;;;;;;;35.10;20.35;;;;;;;4.30;100.00;100138.53;5008371;28;20064;-69
2021/12/05 15:38:34;;;;;;;40.58;23.23;;;;;;;4.33;100.00;100150.59;5006705;28;20707;-69
2021/12/05 15:41:09;;;;;;;36.83;20.15;;;;;;;4.25;100.00;100154.34;5007866;28;20071;-69
2021/12/05 15:43:37;;;;;;;35.05;19.85;;;;;;;4.33;100.00;100167.34;5008908;28;20151;-69
2021/12/05 15:46:11;;;;;;;35.05;21.42;;;;;;;4.32;100.00;100164.91;4997099;28;20538;-68
2021/12/05 15:48:37;;;;;;;35.45;21.60;;;;;;;4.33;100.00;100177.97;5008217;28;20329;-68
2021/12/05 15:51:05;;;;;;;38.97;22.55;;;;;;;4.32;100.00;100184.31;5008886;28;20136;-68
2021/12/05 15:53:33;;;;;;;38.97;21.50;;;;;;;4.24;100.00;100189.09;5011282;28;20039;-68
2021/12/05 15:56:01;;;;;;;37.63;20.35;;;;;;;4.31;100.00;100192.47;4995158;28;20121;-68
2021/12/05 15:58:40;;;;;;;35.03;19.95;;;;;;;4.30;100.00;100204.13;5006756;28;20041;-68
2021/12/05 16:01:15;;;;;;;33.42;18.13;;;;;;;4.25;100.00;100214.59;5009326;28;20037;-69
2021/12/05 16:03:57;;;;;;;32.05;18.42;;;;;;;4.29;100.00;100223.75;4996207;28;20029;-68
2021/12/05 16:06:38;;;;;;;37.08;20.08;;;;;;;4.36;100.00;100229.81;5010233;28;20021;-68
2021/12/05 16:09:15;;;;;;;37.28;21.23;;;;;;;4.37;100.00;100239.41;5016685;28;20079;-69
2021/12/05 16:11:43;;;;;;;37.85;21.25;;;;;;;4.38;100.00;100243.69;5009056;28;20091;-69
2021/12/05 16:14:09;;;;;;;37.15;20.90;;;;;;;4.39;100.00;100255.91;5009541;28;20064;-69
2021/12/05 16:16:39;;;;;;;38.22;21.45;;;;;;;4.30;100.00;100257.22;5009608;28;20184;-68
2021/12/05 16:19:10;;;;;;;33.45;20.02;;;;;;;4.25;100.00;100249.94;5008481;28;22023;-68
2021/12/05 16:21:38;;;;;;;35.10;20.50;;;;;;;4.20;100.00;100269.16;4998579;28;20025;-68
2021/12/05 16:24:15;;;;;;;33.00;19.60;;;;;;;4.22;100.00;100260.97;5009682;28;20128;-68
2021/12/05 16:26:42;;;;;;;36.70;20.98;;;;;;;4.28;100.00;100280.53;5000738;28;20033;-68
2021/12/05 16:29:10;;;;;;;35.38;20.52;;;;;;;4.22;100.00;100261.78;5009161;28;20262;-69
2021/12/05 16:31:53;;;;;;;37.05;20.27;;;;;;;4.27;100.00;100282.38;5010622;28;20029;-69
2021/12/05 16:34:30;;;;;;;36.55;20.60;;;;;;;4.18;100.00;100276.53;5009513;28;20112;-70
2021/12/05 16:37:04;;;;;;;37.70;21.30;;;;;;;4.19;100.00;100278.16;5020040;28;20033;-70
2021/12/05 16:39:34;;;;;;;36.33;19.80;;;;;;;4.15;100.00;100282.28;5010767;28;20151;-68
2021/12/05 16:42:05;;;;;;;36.63;21.23;;;;;;;4.20;100.00;100277.13;5009241;28;20044;-68
2021/12/05 16:44:37;;;;;;;39.85;22.85;;;;;;;4.20;100.00;100294.91;5010181;28;20029;-68
2021/12/05 16:47:13;;;;;;;36.38;20.88;;;;;;;4.21;100.00;100293.88;5004164;28;20049;-68
2021/12/05 16:49:43;;;;;;;35.70;20.08;;;;;;;4.21;100.00;100296.53;5010109;28;20052;-68
2021/12/05 16:52:10;;;;;;;31.10;18.13;;;;;;;4.21;100.00;100297.34;5010403;28;20542;-68
2021/12/05 16:54:45;;;;;;;35.35;20.98;;;;;;;4.31;100.00;100309.31;5024990;28;20552;-68
2021/12/05 16:57:24;;;;;;;26.95;17.20;;;;;;;4.19;100.00;100315.34;5010029;28;20078;-69
2021/12/05 16:59:52;;;;;;;33.15;19.23;;;;;;;4.19;100.00;100320.66;5020335;28;20037;-69
2021/12/05 17:02:19;;;;;;;33.63;19.30;;;;;;;4.24;100.00;100322.66;5015392;28;20037;-68
2021/12/05 17:04:50;;;;;;;32.80;19.65;;;;;;;4.31;100.00;100333.22;5015900;28;20048;-69
2021/12/05 17:07:44;;;;;;;35.92;20.88;;;;;;;4.32;100.00;100340.19;5009660;28;20047;-68
2021/12/05 17:10:24;;;;;;;27.70;16.45;;;;;;;4.27;100.00;100338.16;5008801;28;20056;-68